Time;durP1;ratioP1;P1;durP2;ratioP2;P2;SDS_P1;SDS_P2;PMS_P1;PMS_P2;Temp;Humidity;BMP_temperature;BMP_pressure;BME280_temperature;BME280_humidity;BME280_pressure;Samples;Min_cycle;Max_cycle;Signal;HPM_P1;HPM_P2
2023/06/25 00:01:25;;;;;;;13.75;12.32;;;20.90;99.90;;;;;;5034485;28;20503;-71
2023/06/25 00:03:51;;;;;;;14.02;12.02;;;20.80;99.90;;;;;;5032593;28;20056;-71
2023/06/25 00:06:19;;;;;;;13.68;12.27;;;20.80;99.90;;;;;;5036455;28;20123;-73
2023/06/25 00:08:51;;;;;;;14.10;12.70;;;20.80;99.90;;;;;;5031200;28;20071;-71
2023/06/25 00:11:16;;;;;;;13.73;12.00;;;20.80;99.90;;;;;;5029595;28;20053;-72
2023/06/25 00:13:42;;;;;;;13.95;12.45;;;20.80;99.90;;;;;;5026057;28;20060;-71
2023/06/25 00:16:08;;;;;;;14.57;13.07;;;20.70;99.90;;;;;;5019740;28;20069;-74
2023/06/25 00:18:34;;;;;;;14.27;12.87;;;20.70;99.90;;;;;;5030706;28;20453;-71
2023/06/25 00:21:05;;;;;;;14.55;12.60;;;20.70;99.90;;;;;;5028240;28;20347;-72
2023/06/25 00:23:31;;;;;;;14.50;13.05;;;20.70;99.90;;;;;;5031915;28;20487;-71
2023/06/25 00:25:56;;;;;;;14.60;13.07;;;20.70;99.90;;;;;;5026567;28;20079;-71
2023/06/25 00:28:22;;;;;;;16.17;13.43;;;20.60;99.90;;;;;;5026567;28;20049;-72
2023/06/25 00:30:48;;;;;;;15.23;13.57;;;20.60;99.90;;;;;;5030027;28;20048;-71
2023/06/25 00:33:13;;;;;;;15.68;13.93;;;20.50;99.90;;;;;;5026620;28;20498;-72
2023/06/25 00:35:59;;;;;;;16.05;14.45;;;20.50;99.90;;;;;;5026480;28;20056;-71
2023/06/25 00:38:25;;;;;;;15.93;14.32;;;20.50;99.90;;;;;;5020316;28;20514;-72
2023/06/25 00:40:51;;;;;;;16.67;14.98;;;20.50;99.90;;;;;;5024827;28;20048;-71
2023/06/25 00:43:20;;;;;;;15.80;14.20;;;20.50;99.90;;;;;;5034543;28;20045;-71
2023/06/25 00:45:46;;;;;;;15.95;14.35;;;20.40;99.90;;;;;;5036037;28;20049;-70
2023/06/25 00:48:13;;;;;;;16.33;14.73;;;20.50;99.90;;;;;;5030384;28;20052;-71
2023/06/25 00:50:39;;;;;;;16.23;14.50;;;20.40;99.90;;;;;;5032097;28;20181;-71
2023/06/25 00:53:08;;;;;;;16.20;14.52;;;20.40;99.90;;;;;;5034891;28;20806;-70
2023/06/25 00:55:34;;;;;;;16.35;14.80;;;20.30;99.90;;;;;;5036524;28;20080;-71
2023/06/25 00:58:00;;;;;;;16.63;14.98;;;20.30;99.90;;;;;;5032028;28;20143;-70
2023/06/25 01:00:28;;;;;;;16.95;15.18;;;20.30;99.90;;;;;;5053082;28;20060;-71
2023/06/25 01:03:03;;;;;;;16.98;15.25;;;20.20;99.90;;;;;;5037739;28;20051;-70
2023/06/25 01:05:29;;;;;;;17.52;15.23;;;20.20;99.90;;;;;;5032878;28;20568;-71
2023/06/25 01:07:58;;;;;;;17.30;15.60;;;20.20;99.90;;;;;;5050857;28;20056;-71
2023/06/25 01:10:24;;;;;;;16.95;15.32;;;20.20;99.90;;;;;;5031671;28;20059;-71
2023/06/25 01:12:50;;;;;;;18.83;16.90;;;20.20;99.90;;;;;;5039930;28;20491;-72
2023/06/25 01:15:16;;;;;;;17.48;15.68;;;20.10;99.90;;;;;;5054675;28;20119;-70
2023/06/25 01:17:41;;;;;;;17.45;15.68;;;20.10;99.90;;;;;;5054018;28;20035;-72
2023/06/25 01:20:15;;;;;;;18.73;16.80;;;20.10;99.90;;;;;;5055568;28;20044;-70
2023/06/25 01:22:41;;;;;;;17.48;15.63;;;20.10;99.90;;;;;;5053181;28;20045;-71
2023/06/25 01:25:07;;;;;;;17.90;15.95;;;20.10;99.90;;;;;;5043329;28;20053;-70
2023/06/25 01:27:34;;;;;;;17.60;15.90;;;20.10;99.90;;;;;;5062831;28;20529;-71
2023/06/25 01:30:01;;;;;;;18.63;16.70;;;20.10;99.90;;;;;;5031969;28;20044;-71
2023/06/25 01:32:27;;;;;;;18.35;16.45;;;20.10;99.90;;;;;;5036542;28;20074;-71
2023/06/25 01:34:53;;;;;;;18.50;16.70;;;20.00;99.90;;;;;;5028630;28;21776;-71
2023/06/25 01:37:19;;;;;;;17.60;15.80;;;20.00;99.90;;;;;;5057305;28;20044;-72
2023/06/25 01:39:51;;;;;;;18.30;16.42;;;20.00;99.90;;;;;;5037071;28;20055;-71
2023/06/25 01:42:17;;;;;;;17.80;15.90;;;20.00;99.90;;;;;;5054278;28;20499;-70
2023/06/25 01:44:43;;;;;;;18.30;16.50;;;20.00;99.90;;;;;;5034292;28;20044;-70
2023/06/25 01:47:09;;;;;;;18.58;16.25;;;20.00;99.90;;;;;;5058546;28;20059;-72
2023/06/25 01:49:35;;;;;;;19.52;17.15;;;19.90;99.90;;;;;;5034323;28;20051;-70
2023/06/25 01:52:02;;;;;;;18.90;16.92;;;19.90;99.90;;;;;;5052240;28;20664;-70
2023/06/25 01:54:28;;;;;;;18.13;16.30;;;19.90;99.90;;;;;;5053651;28;20114;-71
2023/06/25 01:56:55;;;;;;;18.67;16.20;;;19.90;99.90;;;;;;5040021;28;20075;-72
2023/06/25 01:59:20;;;;;;;18.48;16.55;;;19.90;99.90;;;;;;5030776;28;20114;-72
2023/06/25 02:01:46;;;;;;;18.23;16.40;;;19.90;99.90;;;;;;5044303;28;20041;-71
2023/06/25 02:04:12;;;;;;;17.65;15.85;;;19.90;99.90;;;;;;5034252;28;20082;-71
2023/06/25 02:06:37;;;;;;;19.10;17.20;;;19.90;99.90;;;;;;5029254;28;20079;-71
2023/06/25 02:09:03;;;;;;;18.40;16.52;;;19.90;99.90;;;;;;5029854;28;20052;-73
2023/06/25 02:11:29;;;;;;;18.63;16.67;;;19.90;99.90;;;;;;5035447;28;20045;-72
2023/06/25 02:13:54;;;;;;;17.73;15.93;;;19.80;99.90;;;;;;5029183;28;20057;-71
2023/06/25 02:16:20;;;;;;;18.45;16.30;;;19.80;99.90;;;;;;5028982;28;20043;-70
2023/06/25 02:18:46;;;;;;;18.45;16.55;;;19.80;99.90;;;;;;5030618;28;20045;-70
2023/06/25 02:21:11;;;;;;;18.67;16.52;;;19.80;99.90;;;;;;5027303;28;20562;-72
2023/06/25 02:23:37;;;;;;;18.88;16.98;;;19.80;99.90;;;;;;5028788;28;20893;-71
2023/06/25 02:26:03;;;;;;;19.67;17.27;;;19.70;99.90;;;;;;5023187;28;20040;-71
2023/06/25 02:28:28;;;;;;;18.15;16.25;;;19.80;99.90;;;;;;5026989;28;20455;-71
2023/06/25 02:30:54;;;;;;;18.48;16.42;;;19.70;99.90;;;;;;5024826;28;20048;-71
2023/06/25 02:33:20;;;;;;;19.02;17.05;;;19.70;99.90;;;;;;5035072;28;20127;-71
2023/06/25 02:35:45;;;;;;;18.38;16.42;;;19.70;99.90;;;;;;5024790;28;20175;-71
2023/06/25 02:38:11;;;;;;;18.48;16.65;;;19.70;99.90;;;;;;5024376;28;20049;-71
2023/06/25 02:40:37;;;;;;;18.67;16.80;;;19.70;99.90;;;;;;5023913;28;21821;-73
2023/06/25 02:43:02;;;;;;;19.60;17.20;;;19.70;99.90;;;;;;5034594;28;20124;-71
2023/06/25 02:45:28;;;;;;;19.77;17.73;;;19.70;99.90;;;;;;5031825;28;20672;-71
2023/06/25 02:47:54;;;;;;;18.85;16.95;;;19.60;99.90;;;;;;5033459;28;20045;-70
2023/06/25 02:50:19;;;;;;;18.00;16.20;;;19.60;99.90;;;;;;5032236;28;20056;-71
2023/06/25 02:52:45;;;;;;;17.95;15.68;;;19.60;99.90;;;;;;5034439;28;20056;-73
2023/06/25 02:55:10;;;;;;;18.67;16.80;;;19.60;99.90;;;;;;5027629;28;20033;-72
2023/06/25 02:57:36;;;;;;;18.52;16.63;;;19.60;99.90;;;;;;5022848;28;20154;-71
2023/06/25 03:00:07;;;;;;;17.63;15.93;;;19.60;99.90;;;;;;5052860;28;20083;-70
2023/06/25 03:02:32;;;;;;;18.80;16.85;;;19.60;99.90;;;;;;5032414;28;20592;-71
2023/06/25 03:04:58;;;;;;;18.38;16.40;;;19.60;99.90;;;;;;5032094;28;20124;-70
2023/06/25 03:07:24;;;;;;;19.98;17.23;;;19.60;99.90;;;;;;5026662;28;20039;-73
2023/06/25 03:09:49;;;;;;;17.92;16.23;;;19.60;99.90;;;;;;5036722;28;20125;-71
2023/06/25 03:12:15;;;;;;;19.00;16.83;;;19.60;99.90;;;;;;5031347;28;20047;-73
2023/06/25 03:14:41;;;;;;;18.67;16.88;;;19.50;99.90;;;;;;5024660;28;20052;-70
2023/06/25 03:17:07;;;;;;;20.50;17.02;;;19.50;99.90;;;;;;5032307;28;20052;-70
2023/06/25 03:19:33;;;;;;;18.27;16.48;;;19.50;99.90;;;;;;5054117;28;20466;-71
2023/06/25 03:21:59;;;;;;;19.08;17.08;;;19.50;99.90;;;;;;5036635;28;20053;-73
2023/06/25 03:24:24;;;;;;;19.42;17.38;;;19.50;99.90;;;;;;5038750;28;20767;-70
2023/06/25 03:26:50;;;;;;;18.52;16.73;;;19.40;99.90;;;;;;5048929;28;20040;-70
2023/06/25 03:29:16;;;;;;;19.25;17.17;;;19.40;99.90;;;;;;5050991;28;20048;-71
2023/06/25 03:31:41;;;;;;;17.05;15.25;;;19.30;99.90;;;;;;5028548;28;20063;-69
2023/06/25 03:34:07;;;;;;;18.85;16.95;;;19.30;99.90;;;;;;5052684;28;20049;-71
2023/06/25 03:36:33;;;;;;;18.65;16.77;;;19.30;99.90;;;;;;5031641;28;20053;-71
2023/06/25 03:38:59;;;;;;;18.48;16.55;;;19.30;99.90;;;;;;5033327;28;20483;-71
2023/06/25 03:41:25;;;;;;;18.67;16.67;;;19.30;99.90;;;;;;5050705;28;20060;-71
2023/06/25 03:43:51;;;;;;;22.92;16.95;;;19.30;99.90;;;;;;5029860;28;20041;-72
2023/06/25 03:46:16;;;;;;;19.10;17.25;;;19.30;99.90;;;;;;5037070;28;20158;-71
2023/06/25 03:48:43;;;;;;;18.65;16.75;;;19.30;99.90;;;;;;5057622;28;20077;-71
2023/06/25 03:51:09;;;;;;;17.45;15.75;;;19.30;99.90;;;;;;5051885;28;20091;-71
2023/06/25 03:53:35;;;;;;;18.27;16.47;;;19.30;99.90;;;;;;5032257;28;20063;-71
2023/06/25 03:56:00;;;;;;;18.27;16.48;;;19.30;99.90;;;;;;5035197;28;20314;-70
2023/06/25 03:58:26;;;;;;;17.90;16.02;;;19.30;99.90;;;;;;5038905;28;20531;-72
2023/06/25 04:00:52;;;;;;;18.00;15.93;;;19.40;99.90;;;;;;5029874;28;20105;-72
2023/06/25 04:03:17;;;;;;;18.50;15.85;;;19.40;99.90;;;;;;5058074;28;20597;-72
2023/06/25 04:05:45;;;;;;;18.20;16.40;;;19.40;99.90;;;;;;5055323;28;20387;-71
2023/06/25 04:08:11;;;;;;;18.92;16.92;;;19.40;99.90;;;;;;5030133;28;20438;-71
2023/06/25 04:10:38;;;;;;;19.10;17.20;;;19.40;99.90;;;;;;5045551;28;20042;-70
2023/06/25 04:13:04;;;;;;;18.75;16.77;;;19.40;99.90;;;;;;5030636;28;20044;-71
2023/06/25 04:15:29;;;;;;;20.33;18.25;;;19.50;99.90;;;;;;5027834;28;20040;-72
2023/06/25 04:17:55;;;;;;;19.30;17.30;;;19.50;99.90;;;;;;5028324;28;20052;-72
2023/06/25 04:20:23;;;;;;;18.88;17.00;;;19.50;99.90;;;;;;5052335;28;20780;-71
2023/06/25 04:22:48;;;;;;;19.48;17.40;;;19.60;99.90;;;;;;5034467;28;20112;-71
2023/06/25 04:25:14;;;;;;;20.83;18.63;;;19.60;99.90;;;;;;5034896;28;20050;-73
2023/06/25 04:27:40;;;;;;;19.42;17.48;;;19.70;99.90;;;;;;5041294;28;20103;-72
2023/06/25 04:30:06;;;;;;;20.27;18.17;;;19.60;99.90;;;;;;5026615;28;20510;-71
2023/06/25 04:32:32;;;;;;;19.47;17.57;;;19.70;99.90;;;;;;5036807;28;20055;-72
2023/06/25 04:34:59;;;;;;;19.37;17.37;;;19.70;99.90;;;;;;5033615;28;20048;-71
2023/06/25 04:37:25;;;;;;;19.90;17.20;;;19.80;99.90;;;;;;5037512;28;21661;-71
2023/06/25 04:39:50;;;;;;;18.67;16.67;;;19.90;99.90;;;;;;5034240;28;20051;-71
2023/06/25 04:42:16;;;;;;;19.88;17.88;;;19.90;99.90;;;;;;5031853;28;20500;-73
2023/06/25 04:44:42;;;;;;;20.77;17.55;;;19.90;99.90;;;;;;5031595;28;20084;-72
2023/06/25 04:47:07;;;;;;;20.77;18.60;;;20.00;99.90;;;;;;5031461;28;20053;-72
2023/06/25 04:49:33;;;;;;;19.83;17.73;;;20.00;99.90;;;;;;5056475;28;20131;-72
2023/06/25 04:51:59;;;;;;;22.05;18.25;;;20.10;99.90;;;;;;5059376;28;20056;-71
2023/06/25 04:54:24;;;;;;;19.92;17.83;;;20.10;99.90;;;;;;5038879;28;20119;-71
2023/06/25 04:56:50;;;;;;;20.20;17.92;;;20.10;99.90;;;;;;5041263;28;20052;-71
2023/06/25 04:59:16;;;;;;;20.40;18.20;;;20.10;99.90;;;;;;5032449;28;20048;-72
2023/06/25 05:01:41;;;;;;;19.63;17.55;;;20.20;99.90;;;;;;5040189;28;20135;-74
2023/06/25 05:04:07;;;;;;;19.65;17.45;;;20.20;99.90;;;;;;5025110;28;20186;-74
2023/06/25 05:06:33;;;;;;;19.58;17.67;;;20.30;99.90;;;;;;5053912;28;20051;-73
2023/06/25 05:08:58;;;;;;;19.85;17.85;;;20.40;99.90;;;;;;5033246;28;20044;-72
2023/06/25 05:11:24;;;;;;;20.83;18.33;;;20.40;99.90;;;;;;5030488;28;20551;-72
2023/06/25 05:13:49;;;;;;;20.25;17.52;;;20.40;99.90;;;;;;5057793;28;20486;-72
2023/06/25 05:16:15;;;;;;;20.15;18.05;;;20.50;99.90;;;;;;5036755;28;20052;-73
2023/06/25 05:18:42;;;;;;;19.73;17.73;;;20.50;99.90;;;;;;5061069;28;20051;-74
2023/06/25 05:21:07;;;;;;;19.73;17.73;;;20.60;99.90;;;;;;5057175;28;20053;-72
2023/06/25 05:23:44;;;;;;;20.27;18.17;;;20.60;99.90;;;;;;5032144;28;20075;-72
2023/06/25 05:26:11;;;;;;;20.20;18.20;;;20.70;99.90;;;;;;5031178;28;20487;-72
2023/06/25 05:28:37;;;;;;;20.92;18.60;;;20.70;99.90;;;;;;5058511;28;20044;-72
2023/06/25 05:31:03;;;;;;;20.47;17.93;;;20.80;99.90;;;;;;5046938;28;20067;-72
2023/06/25 05:33:28;;;;;;;20.15;17.98;;;20.80;99.90;;;;;;5058145;28;20476;-72
2023/06/25 05:35:54;;;;;;;20.05;17.88;;;20.90;99.90;;;;;;5033358;28;20082;-71
2023/06/25 05:38:19;;;;;;;19.60;17.70;;;20.90;99.90;;;;;;5041459;28;20048;-72
2023/06/25 05:40:45;;;;;;;20.20;18.10;;;21.00;99.90;;;;;;5042147;28;20122;-72
2023/06/25 05:43:11;;;;;;;19.90;17.90;;;21.00;99.90;;;;;;5036480;28;20709;-72
2023/06/25 05:45:36;;;;;;;20.75;18.65;;;21.00;99.90;;;;;;5034435;28;21139;-72
2023/06/25 05:48:02;;;;;;;22.73;18.65;;;21.10;99.90;;;;;;5034233;28;20045;-72
2023/06/25 05:50:28;;;;;;;20.42;18.52;;;21.20;99.90;;;;;;5036462;28;20110;-71
2023/06/25 05:52:53;;;;;;;19.45;17.52;;;21.20;99.90;;;;;;5058426;28;20033;-71
2023/06/25 05:55:19;;;;;;;22.83;19.02;;;21.30;99.90;;;;;;5046710;28;20052;-70
2023/06/25 05:57:45;;;;;;;21.30;18.85;;;21.30;99.90;;;;;;5057111;28;20124;-71
2023/06/25 06:00:11;;;;;;;22.33;19.38;;;21.40;99.90;;;;;;5035610;28;20051;-71
2023/06/25 06:02:36;;;;;;;19.55;17.58;;;21.40;99.90;;;;;;5039560;28;20040;-71
2023/06/25 06:05:02;;;;;;;20.75;18.65;;;21.50;99.90;;;;;;5035166;28;20052;-71
2023/06/25 06:07:28;;;;;;;20.40;18.40;;;21.60;99.90;;;;;;5042008;28;20045;-71
2023/06/25 06:09:54;;;;;;;21.05;18.95;;;21.60;99.90;;;;;;5033680;28;20475;-72
2023/06/25 06:12:19;;;;;;;20.08;17.85;;;21.70;99.90;;;;;;5052837;28;20051;-71
2023/06/25 06:14:45;;;;;;;21.52;19.33;;;21.80;99.90;;;;;;5050885;28;20040;-70
2023/06/25 06:17:11;;;;;;;21.92;19.35;;;21.80;99.90;;;;;;5052756;28;20051;-71
2023/06/25 06:19:36;;;;;;;20.75;18.25;;;21.90;99.90;;;;;;5026822;28;20082;-71
2023/06/25 06:22:02;;;;;;;21.05;18.85;;;22.00;99.90;;;;;;5036676;28;20055;-71
2023/06/25 06:24:28;;;;;;;21.60;19.33;;;22.10;99.90;;;;;;5034407;28;20036;-72
2023/06/25 06:26:54;;;;;;;28.10;18.95;;;22.10;99.90;;;;;;5025989;28;20052;-70
2023/06/25 06:29:19;;;;;;;22.30;19.92;;;22.20;99.90;;;;;;5034859;28;20049;-69
2023/06/25 06:31:45;;;;;;;20.75;18.67;;;22.30;99.90;;;;;;5049662;28;20047;-71
2023/06/25 06:34:11;;;;;;;22.77;20.58;;;22.40;99.90;;;;;;5034567;28;20055;-71
2023/06/25 06:36:37;;;;;;;21.05;18.85;;;22.40;99.90;;;;;;5030290;28;20461;-70
2023/06/25 06:39:03;;;;;;;20.55;18.65;;;22.50;99.90;;;;;;5031458;28;20047;-73
2023/06/25 06:41:28;;;;;;;20.92;18.90;;;22.60;99.90;;;;;;5035804;28;20043;-71
2023/06/25 06:44:09;;;;;;;20.73;18.63;;;22.60;99.90;;;;;;5051352;28;20463;-71
2023/06/25 06:46:34;;;;;;;21.02;19.13;;;22.70;99.90;;;;;;5030824;28;20044;-69
2023/06/25 06:49:00;;;;;;;20.30;18.50;;;22.80;99.90;;;;;;5055745;28;20064;-71
2023/06/25 06:51:26;;;;;;;19.75;17.75;;;22.90;99.90;;;;;;5047741;28;20033;-70
2023/06/25 06:53:51;;;;;;;21.48;18.77;;;22.90;99.90;;;;;;5034512;28;20049;-71
2023/06/25 06:56:17;;;;;;;20.35;18.45;;;23.00;99.90;;;;;;5055179;28;20068;-71
2023/06/25 06:58:43;;;;;;;19.85;17.98;;;23.10;99.90;;;;;;5040528;28;20040;-71
2023/06/25 07:01:09;;;;;;;20.00;18.03;;;23.20;99.90;;;;;;5042038;28;20053;-72
2023/06/25 07:03:34;;;;;;;19.88;17.95;;;23.20;99.90;;;;;;5032264;28;20090;-71
2023/06/25 07:06:00;;;;;;;20.85;18.60;;;23.30;99.90;;;;;;5021097;28;20076;-71
2023/06/25 07:08:26;;;;;;;19.25;17.40;;;23.40;99.90;;;;;;5023922;28;20403;-71
2023/06/25 07:10:51;;;;;;;19.85;17.85;;;23.50;99.90;;;;;;5024359;28;20067;-71
2023/06/25 07:13:17;;;;;;;19.63;17.73;;;23.50;99.90;;;;;;5049856;28;20053;-71
2023/06/25 07:15:43;;;;;;;19.80;17.75;;;23.60;99.90;;;;;;5049820;28;20079;-68
2023/06/25 07:18:08;;;;;;;19.48;17.67;;;23.70;99.90;;;;;;5030646;28;20040;-71
2023/06/25 07:20:34;;;;;;;18.02;16.27;;;23.70;99.90;;;;;;5040223;28;20045;-72
2023/06/25 07:23:00;;;;;;;17.17;15.57;;;23.80;99.90;;;;;;5046674;28;20053;-72
2023/06/25 07:25:25;;;;;;;17.88;16.13;;;23.90;99.90;;;;;;5053841;28;20056;-72
2023/06/25 07:27:51;;;;;;;18.80;17.00;;;23.90;99.90;;;;;;5051449;28;20217;-71
2023/06/25 07:30:17;;;;;;;18.23;16.52;;;24.00;99.90;;;;;;5051868;28;20460;-71
2023/06/25 07:32:42;;;;;;;18.10;16.30;;;24.10;99.90;;;;;;5052632;28;20127;-70
2023/06/25 07:35:08;;;;;;;18.77;16.98;;;24.20;99.90;;;;;;5056668;28;20044;-72
2023/06/25 07:37:34;;;;;;;17.98;16.30;;;24.30;99.90;;;;;;5024144;28;20118;-70
2023/06/25 07:40:00;;;;;;;18.67;15.40;;;24.40;99.90;;;;;;5051075;28;20098;-72
2023/06/25 07:42:25;;;;;;;16.15;14.75;;;24.40;99.90;;;;;;5035844;28;20048;-73
2023/06/25 07:44:51;;;;;;;16.15;13.35;;;24.50;99.90;;;;;;5053894;28;20044;-72
2023/06/25 07:47:16;;;;;;;16.20;14.55;;;24.60;99.90;;;;;;5034550;28;20048;-72
2023/06/25 07:49:42;;;;;;;16.08;14.50;;;24.70;99.90;;;;;;5032484;28;20067;-71
2023/06/25 07:52:08;;;;;;;14.63;13.23;;;24.90;99.90;;;;;;5049429;28;20378;-73
2023/06/25 07:54:34;;;;;;;14.32;12.93;;;24.90;99.90;;;;;;5052366;28;20047;-73
2023/06/25 07:56:59;;;;;;;12.20;11.10;;;24.90;99.90;;;;;;5023221;28;20048;-71
2023/06/25 07:59:25;;;;;;;14.77;13.27;;;25.00;99.90;;;;;;5049848;28;20049;-70
2023/06/25 08:01:51;;;;;;;15.55;13.77;;;25.10;99.90;;;;;;5047898;28;20121;-69
2023/06/25 08:04:17;;;;;;;13.32;11.80;;;25.10;99.90;;;;;;5054991;28;20063;-69
2023/06/25 08:06:42;;;;;;;13.23;11.95;;;25.20;99.90;;;;;;5032080;28;20080;-69
2023/06/25 08:09:08;;;;;;;12.82;11.50;;;25.20;99.90;;;;;;5047116;28;20036;-69
2023/06/25 08:11:34;;;;;;;13.68;12.38;;;25.30;99.90;;;;;;5051385;28;20459;-69
2023/06/25 08:13:59;;;;;;;11.95;10.50;;;25.40;99.90;;;;;;5049652;28;21341;-70
2023/06/25 08:16:28;;;;;;;10.82;9.50;;;25.50;99.90;;;;;;5045761;28;20109;-69
2023/06/25 08:18:53;;;;;;;13.10;10.52;;;25.60;99.90;;;;;;5044919;28;20053;-72
2023/06/25 08:21:19;;;;;;;10.90;9.55;;;25.60;99.90;;;;;;5039607;28;20052;-69
2023/06/25 08:23:45;;;;;;;12.73;10.23;;;25.70;99.90;;;;;;5043562;28;20505;-71
2023/06/25 08:26:15;;;;;;;11.55;10.30;;;25.70;99.90;;;;;;5040889;28;20053;-70
2023/06/25 08:28:42;;;;;;;10.70;9.60;;;25.80;99.90;;;;;;5045074;28;20109;-69
2023/06/25 08:31:08;;;;;;;;;;;25.90;99.90;;;;;;5049253;28;20053;-68
2023/06/25 08:33:34;;;;;;;10.65;9.57;;;26.00;99.90;;;;;;5049014;28;19976;-69
2023/06/25 08:36:00;;;;;;;10.63;9.53;;;26.00;99.90;;;;;;5052111;28;20040;-68
2023/06/25 08:38:26;;;;;;;9.55;8.55;;;26.10;99.90;;;;;;5049553;28;20290;-69
2023/06/25 08:40:53;;;;;;;10.15;9.05;;;26.20;99.90;;;;;;5044213;28;20105;-69
2023/06/25 08:43:19;;;;;;;10.07;8.98;;;26.30;99.90;;;;;;5049128;28;20036;-69
2023/06/25 08:45:47;;;;;;;10.45;9.40;;;26.50;99.90;;;;;;5046708;28;20048;-70
2023/06/25 08:48:13;;;;;;;10.57;9.55;;;26.60;99.90;;;;;;5045722;28;20045;-70
2023/06/25 08:50:42;;;;;;;9.95;8.68;;;26.60;99.90;;;;;;5046744;28;20090;-70
2023/06/25 08:53:08;;;;;;;9.80;8.70;;;26.70;99.90;;;;;;5044230;28;20040;-70
2023/06/25 08:55:35;;;;;;;9.85;8.85;;;26.70;99.90;;;;;;5034567;28;20049;-70
2023/06/25 08:58:01;;;;;;;9.38;8.13;;;26.80;99.80;;;;;;5040885;28;20079;-70
2023/06/25 09:00:26;;;;;;;9.77;7.90;;;26.90;99.60;;;;;;5028782;28;20060;-72
2023/06/25 09:02:54;;;;;;;12.20;9.10;;;26.90;99.50;;;;;;5041906;28;20306;-72
2023/06/25 09:05:25;;;;;;;9.80;8.20;;;27.00;98.90;;;;;;5050820;28;20056;-69
2023/06/25 09:07:51;;;;;;;10.40;7.35;;;27.10;98.20;;;;;;5040919;28;20049;-71
2023/06/25 09:10:21;;;;;;;10.40;8.70;;;27.10;98.30;;;;;;5044598;28;20079;-71
2023/06/25 09:12:51;;;;;;;9.82;7.30;;;27.20;97.40;;;;;;5051017;28;20037;-70
2023/06/25 09:15:26;;;;;;;8.70;7.80;;;27.20;97.90;;;;;;5054141;28;20135;-70
2023/06/25 09:17:56;;;;;;;7.60;6.88;;;27.30;96.60;;;;;;5053003;28;20040;-71
2023/06/25 09:20:22;;;;;;;7.40;6.18;;;27.30;96.60;;;;;;5044035;28;20047;-71
2023/06/25 09:22:53;;;;;;;7.47;6.35;;;27.40;96.90;;;;;;5051616;28;20059;-69
2023/06/25 09:25:21;;;;;;;6.88;6.10;;;27.60;96.30;;;;;;5054098;28;20973;-70
2023/06/25 09:27:48;;;;;;;6.75;5.70;;;27.60;95.40;;;;;;5045803;28;20222;-69
2023/06/25 09:30:14;;;;;;;6.60;5.60;;;27.60;95.40;;;;;;5053945;28;20178;-71
2023/06/25 09:32:50;;;;;;;7.65;5.85;;;27.80;94.80;;;;;;5029179;28;20083;-72
2023/06/25 09:35:28;;;;;;;7.60;6.40;;;27.80;94.10;;;;;;5047747;28;20398;-72
2023/06/25 09:37:54;;;;;;;9.50;7.00;;;27.90;94.30;;;;;;5055327;28;20049;-71
2023/06/25 09:40:20;;;;;;;7.10;5.97;;;27.90;93.10;;;;;;5034418;28;20041;-70
2023/06/25 09:42:48;;;;;;;6.70;6.00;;;27.90;93.00;;;;;;5048424;28;21103;-71
2023/06/25 09:45:15;;;;;;;7.85;6.07;;;28.00;93.70;;;;;;5049795;28;20099;-72
2023/06/25 09:47:43;;;;;;;8.18;6.07;;;28.10;92.70;;;;;;5055091;28;20040;-70
2023/06/25 09:50:23;;;;;;;6.80;6.10;;;28.20;92.00;;;;;;5054808;28;20101;-70
2023/06/25 09:52:57;;;;;;;8.15;6.25;;;28.20;91.50;;;;;;5051208;28;20044;-72
2023/06/25 09:55:24;;;;;;;8.10;6.13;;;28.20;92.40;;;;;;5038964;28;20469;-70
2023/06/25 09:57:52;;;;;;;8.43;5.78;;;28.30;93.10;;;;;;5057093;28;20147;-70
2023/06/25 10:00:22;;;;;;;8.70;6.30;;;28.30;92.90;;;;;;5050697;28;20094;-73
2023/06/25 10:02:48;;;;;;;7.43;6.07;;;28.40;91.40;;;;;;5051039;28;21667;-70
2023/06/25 10:05:14;;;;;;;8.38;5.47;;;28.50;90.50;;;;;;5054473;28;20056;-72
2023/06/25 10:07:42;;;;;;;8.80;6.45;;;28.60;91.10;;;;;;5051596;28;20052;-70
2023/06/25 10:10:22;;;;;;;7.80;5.80;;;28.60;89.30;;;;;;5054286;28;20467;-70
2023/06/25 10:12:51;;;;;;;7.88;6.05;;;28.60;89.00;;;;;;5052521;28;20060;-70
2023/06/25 10:15:36;;;;;;;6.43;5.70;;;28.70;89.70;;;;;;5055758;28;20041;-70
2023/06/25 10:18:04;;;;;;;6.90;6.10;;;28.90;90.70;;;;;;5034656;28;20059;-72
2023/06/25 10:20:34;;;;;;;7.85;6.00;;;28.90;90.10;;;;;;5056423;28;20040;-70
2023/06/25 10:23:07;;;;;;;8.38;6.15;;;29.00;89.80;;;;;;5038499;28;20045;-70
2023/06/25 10:25:36;;;;;;;7.07;5.90;;;29.00;89.50;;;;;;5054664;28;20045;-71
2023/06/25 10:28:09;;;;;;;8.18;6.00;;;29.10;90.00;;;;;;5052642;28;20415;-71
2023/06/25 10:30:40;;;;;;;7.55;5.75;;;29.10;90.00;;;;;;5055198;28;20044;-70
2023/06/25 10:33:06;;;;;;;6.80;5.68;;;29.20;88.60;;;;;;5051164;28;20147;-71
2023/06/25 10:35:38;;;;;;;7.55;5.88;;;29.20;86.30;;;;;;5048459;28;20040;-70
2023/06/25 10:38:04;;;;;;;8.00;5.30;;;29.30;86.10;;;;;;5054614;28;20078;-72
2023/06/25 10:40:37;;;;;;;6.53;5.37;;;29.30;86.80;;;;;;5031838;28;20056;-71
2023/06/25 10:43:03;;;;;;;6.53;5.80;;;29.40;86.10;;;;;;5050463;28;20673;-69
2023/06/25 10:45:29;;;;;;;8.37;6.03;;;29.50;83.90;;;;;;5053898;28;20046;-71
2023/06/25 10:48:08;;;;;;;6.75;5.95;;;29.50;83.00;;;;;;5054385;28;20053;-70
2023/06/25 10:50:35;;;;;;;6.90;5.80;;;29.60;82.40;;;;;;5055092;28;20104;-71
2023/06/25 10:53:01;;;;;;;9.02;5.07;;;29.70;82.40;;;;;;5051844;28;20049;-70
2023/06/25 10:55:27;;;;;;;;;;;29.70;81.60;;;;;;5051961;28;20044;-71
2023/06/25 10:57:55;;;;;;;6.63;5.05;;;29.80;78.70;;;;;;5051349;28;19924;-70
2023/06/25 11:00:22;;;;;;;6.40;5.20;;;29.80;79.80;;;;;;5041573;28;20052;-70
2023/06/25 11:02:52;;;;;;;6.10;5.07;;;29.90;79.40;;;;;;5021908;28;20044;-71
2023/06/25 11:05:30;;;;;;;6.45;5.18;;;30.00;80.60;;;;;;5044929;28;21896;-70
2023/06/25 11:07:56;;;;;;;5.82;4.82;;;30.00;78.40;;;;;;5056490;28;20398;-72
2023/06/25 11:10:25;;;;;;;6.93;5.23;;;30.10;77.70;;;;;;5051630;28;20040;-72
2023/06/25 11:12:51;;;;;;;5.88;4.65;;;30.10;74.10;;;;;;5053541;28;20708;-69
2023/06/25 11:15:18;;;;;;;6.80;5.47;;;30.10;74.40;;;;;;5048474;28;20036;-72
2023/06/25 11:17:44;;;;;;;6.22;5.15;;;30.10;76.70;;;;;;5031819;28;20075;-72
2023/06/25 11:20:11;;;;;;;6.30;5.70;;;30.20;77.50;;;;;;5028258;28;20050;-71
2023/06/25 11:22:43;;;;;;;8.30;5.30;;;30.20;74.00;;;;;;5034535;28;20044;-71
2023/06/25 11:25:11;;;;;;;5.85;4.90;;;30.20;75.40;;;;;;5051121;28;20044;-71
2023/06/25 11:27:37;;;;;;;6.28;5.00;;;30.20;73.10;;;;;;5048070;28;20582;-71
2023/06/25 11:30:04;;;;;;;5.57;4.97;;;30.20;73.90;;;;;;5029365;28;20048;-72
2023/06/25 11:32:30;;;;;;;7.53;5.03;;;30.30;72.70;;;;;;5031562;28;20503;-71
2023/06/25 11:34:57;;;;;;;5.78;4.63;;;30.30;71.00;;;;;;5050515;28;20044;-71
2023/06/25 11:37:22;;;;;;;6.13;4.82;;;30.30;72.10;;;;;;5048454;28;20127;-71
2023/06/25 11:39:50;;;;;;;5.60;4.87;;;30.40;71.30;;;;;;5031814;28;20664;-71
2023/06/25 11:42:21;;;;;;;7.07;5.07;;;30.50;70.80;;;;;;5048458;28;20572;-70
2023/06/25 11:45:04;;;;;;;6.15;5.55;;;30.50;71.60;;;;;;5049899;28;20044;-71
2023/06/25 11:47:31;;;;;;;6.55;5.13;;;30.70;71.90;;;;;;5023591;28;20043;-72
2023/06/25 11:49:58;;;;;;;6.55;5.20;;;30.70;74.10;;;;;;5029557;28;20059;-71
2023/06/25 11:52:24;;;;;;;5.93;5.22;;;30.70;74.10;;;;;;5050444;28;20045;-71
2023/06/25 11:54:50;;;;;;;6.70;5.82;;;30.80;76.10;;;;;;5048197;28;20075;-71
2023/06/25 11:57:17;;;;;;;6.63;5.40;;;31.00;75.40;;;;;;5024269;28;20032;-71
2023/06/25 11:59:43;;;;;;;;;;;31.00;72.00;;;;;;5053483;28;20310;-71
2023/06/25 12:02:09;;;;;;;6.10;5.50;;;31.00;72.80;;;;;;5050784;28;19931;-71
2023/06/25 12:04:35;;;;;;;;;;;31.00;73.50;;;;;;5051629;28;20127;-71
2023/06/25 12:07:01;;;;;;;5.75;4.80;;;31.00;74.40;;;;;;5053404;28;20396;-71
2023/06/25 12:09:27;;;;;;;5.95;5.43;;;31.00;72.20;;;;;;5034013;28;20138;-71
2023/06/25 12:11:53;;;;;;;7.78;5.65;;;31.00;71.50;;;;;;5050337;28;20131;-71
2023/06/25 12:14:18;;;;;;;6.57;5.00;;;31.00;71.30;;;;;;5034230;28;20472;-72
2023/06/25 12:16:44;;;;;;;7.00;5.30;;;31.10;72.20;;;;;;5051968;28;20048;-71
2023/06/25 12:19:10;;;;;;;7.13;5.13;;;31.10;72.70;;;;;;5051204;28;20055;-71
2023/06/25 12:21:35;;;;;;;6.57;5.10;;;31.20;71.50;;;;;;5053144;28;20090;-71
2023/06/25 12:24:01;;;;;;;6.18;5.10;;;31.20;70.50;;;;;;5033331;28;20054;-71
2023/06/25 12:26:27;;;;;;;5.97;5.37;;;31.30;70.60;;;;;;5044840;28;20067;-72
2023/06/25 12:28:52;;;;;;;5.73;5.23;;;31.30;69.40;;;;;;5038043;28;20082;-71
2023/06/25 12:31:18;;;;;;;6.10;5.23;;;31.30;70.10;;;;;;5050396;28;20049;-73